createdAt,value
2023-02-05T00:02:17.809Z,72.20
2023-02-05T00:04:50.647Z,72.31
2023-02-05T00:07:22.784Z,72.17
2023-02-05T00:09:55.258Z,71.80
2023-02-05T00:12:27.236Z,71.74
2023-02-05T00:14:59.193Z,71.91
2023-02-05T00:17:31.648Z,71.84
2023-02-05T00:20:05.048Z,71.83
2023-02-05T00:22:37.158Z,71.84
2023-02-05T00:25:09.518Z,71.48
2023-02-05T00:27:42.307Z,71.33
2023-02-05T00:30:15.036Z,71.45
2023-02-05T00:32:47.769Z,71.82
2023-02-05T00:35:19.803Z,71.68
2023-02-05T00:37:52.067Z,71.91
2023-02-05T00:40:24.080Z,71.69
2023-02-05T00:42:56.140Z,71.38
2023-02-05T00:45:29.769Z,71.47
2023-02-05T00:48:03.216Z,71.54
2023-02-05T00:50:35.872Z,71.64
2023-02-05T00:53:08.939Z,71.27
2023-02-05T00:55:41.101Z,71.31
2023-02-05T00:58:13.684Z,71.40
2023-02-05T01:00:46.061Z,71.29
2023-02-05T01:03:18.816Z,71.56
2023-02-05T01:05:51.933Z,71.49
2023-02-05T01:08:24.364Z,71.22
2023-02-05T01:10:57.054Z,71.08
2023-02-05T01:13:29.227Z,71.47
2023-02-05T01:16:01.351Z,71.52
2023-02-05T01:18:33.640Z,71.46
2023-02-05T01:21:05.789Z,71.63
2023-02-05T01:23:38.278Z,71.82
2023-02-05T01:26:10.198Z,71.58
2023-02-05T01:28:42.131Z,71.76
2023-02-05T01:31:14.262Z,72.03
2023-02-05T01:33:46.514Z,71.90
2023-02-05T01:36:18.650Z,71.80
2023-02-05T01:38:50.774Z,72.02
2023-02-05T01:41:22.975Z,71.99
2023-02-05T01:44:14.242Z,71.99
2023-02-05T01:46:47.834Z,72.29
2023-02-05T01:49:34.676Z,72.16
2023-02-05T01:52:09.558Z,72.58
2023-02-05T01:54:44.706Z,72.20
2023-02-05T01:57:22.184Z,72.29
2023-02-05T01:59:54.374Z,72.17
2023-02-05T02:02:28.965Z,72.34
2023-02-05T02:05:04.351Z,72.61
2023-02-05T02:07:37.305Z,72.39
2023-02-05T02:10:12.072Z,72.44
2023-02-05T02:12:46.874Z,72.62
2023-02-05T02:15:25.787Z,72.54
2023-02-05T02:18:21.871Z,72.48
2023-02-05T02:21:05.517Z,72.38
2023-02-05T02:24:10.527Z,72.31
2023-02-05T02:27:01.756Z,72.20
2023-02-05T02:29:54.449Z,72.16
2023-02-05T02:32:31.990Z,72.20
2023-02-05T02:35:26.823Z,72.04
2023-02-05T02:38:30.511Z,72.16
2023-02-05T02:41:06.435Z,72.20
2023-02-05T02:43:56.414Z,72.29
2023-02-05T02:46:40.564Z,72.37
2023-02-05T02:49:15.671Z,72.41
2023-02-05T02:51:51.004Z,72.25
2023-02-05T02:54:24.249Z,72.32
2023-02-05T02:56:58.518Z,72.31
2023-02-05T02:59:34.059Z,72.07
2023-02-05T03:02:08.951Z,72.25
2023-02-05T03:04:45.540Z,72.48
2023-02-05T03:07:23.757Z,72.65
2023-02-05T03:09:58.978Z,72.46
2023-02-05T03:12:31.948Z,72.37
2023-02-05T03:15:04.228Z,72.50
2023-02-05T03:17:39.460Z,72.56
2023-02-05T03:20:23.138Z,72.40
2023-02-05T03:22:57.265Z,72.58
2023-02-05T03:25:31.748Z,72.45
2023-02-05T03:28:05.242Z,72.45
2023-02-05T03:30:39.127Z,72.56
2023-02-05T03:33:32.253Z,72.72
2023-02-05T03:36:19.412Z,72.44
2023-02-05T03:39:03.295Z,72.28
2023-02-05T03:41:58.819Z,72.36
2023-02-05T03:45:00.663Z,72.15
2023-02-05T03:47:43.442Z,72.39
2023-02-05T03:50:21.178Z,72.27
2023-02-05T03:53:12.226Z,72.27
2023-02-05T03:55:50.134Z,72.26
2023-02-05T03:58:28.122Z,71.96
2023-02-05T04:01:01.738Z,72.01
2023-02-05T04:03:33.777Z,71.68
2023-02-05T04:06:06.337Z,72.21
2023-02-05T04:08:43.044Z,71.52
2023-02-05T04:11:15.764Z,71.21
2023-02-05T04:13:49.435Z,71.43
2023-02-05T04:16:21.895Z,71.69
2023-02-05T04:18:54.023Z,71.58
2023-02-05T04:21:26.253Z,71.27
2023-02-05T04:23:58.453Z,71.64
2023-02-05T04:26:30.720Z,71.90
2023-02-05T04:29:04.338Z,71.61
2023-02-05T04:31:38.990Z,71.29
2023-02-05T04:34:11.247Z,71.30
2023-02-05T04:36:44.043Z,71.25
2023-02-05T04:39:15.930Z,71.00
2023-02-05T04:41:48.163Z,71.00
2023-02-05T04:44:20.229Z,70.88
2023-02-05T04:46:52.261Z,70.70
2023-02-05T04:49:24.555Z,70.05
2023-02-05T04:51:57.243Z,70.14
2023-02-05T04:54:29.276Z,69.89
2023-02-05T04:57:01.593Z,69.72
2023-02-05T04:59:33.735Z,69.71
2023-02-05T05:02:06.178Z,69.80
2023-02-05T05:04:40.651Z,69.95
2023-02-05T05:07:13.298Z,70.23
2023-02-05T05:09:45.511Z,70.08
2023-02-05T05:12:17.532Z,70.14
2023-02-05T05:14:49.623Z,70.28
2023-02-05T05:17:21.870Z,70.53
2023-02-05T05:19:56.828Z,70.90
2023-02-05T05:22:29.138Z,71.12
2023-02-05T05:25:01.613Z,71.33
2023-02-05T05:27:33.788Z,71.02
2023-02-05T05:30:06.566Z,71.20
2023-02-05T05:32:38.685Z,71.17
2023-02-05T05:35:11.107Z,71.44
2023-02-05T05:37:43.596Z,71.32
2023-02-05T05:40:33.639Z,71.00
2023-02-05T05:43:23.729Z,70.90
2023-02-05T05:45:56.176Z,70.66
2023-02-05T05:48:29.100Z,70.75
2023-02-05T05:51:01.386Z,69.52
2023-02-05T05:53:34.113Z,69.98
2023-02-05T05:56:06.501Z,70.08
2023-02-05T05:58:38.759Z,69.90
2023-02-05T06:01:11.967Z,70.06
2023-02-05T06:03:44.148Z,69.81
2023-02-05T06:06:16.359Z,69.92
2023-02-05T06:08:48.475Z,70.13
2023-02-05T06:11:20.772Z,70.15
2023-02-05T06:13:54.660Z,70.43
2023-02-05T06:16:26.797Z,69.80
2023-02-05T06:18:59.242Z,69.52
2023-02-05T06:21:31.533Z,69.56
2023-02-05T06:24:04.003Z,69.03
2023-02-05T06:26:36.686Z,69.29
2023-02-05T06:29:08.796Z,69.08
2023-02-05T06:31:41.087Z,68.73
2023-02-05T06:34:13.644Z,68.89
2023-02-05T06:36:45.917Z,68.21
2023-02-05T06:39:17.936Z,68.77
2023-02-05T06:41:50.462Z,68.52
2023-02-05T06:44:22.933Z,68.64
2023-02-05T06:46:55.420Z,68.53
2023-02-05T06:49:28.489Z,68.33
2023-02-05T06:52:01.251Z,68.23
2023-02-05T06:54:33.552Z,67.63
2023-02-05T06:57:06.530Z,67.61
2023-02-05T06:59:39.223Z,67.35
2023-02-05T07:02:14.796Z,67.17
2023-02-05T07:04:47.244Z,67.33
2023-02-05T07:07:19.175Z,66.92
2023-02-05T07:09:51.788Z,67.06
2023-02-05T07:12:24.130Z,66.79
2023-02-05T07:14:56.101Z,66.34
2023-02-05T07:17:28.048Z,66.58
2023-02-05T07:20:00.319Z,66.46
2023-02-05T07:22:34.289Z,65.47
2023-02-05T07:25:06.445Z,64.86
2023-02-05T07:27:38.548Z,64.61
2023-02-05T07:30:11.968Z,64.61
2023-02-05T07:32:44.048Z,64.21
2023-02-05T07:35:16.216Z,64.79
2023-02-05T07:37:48.535Z,64.67
2023-02-05T07:40:21.004Z,64.77
2023-02-05T07:42:53.426Z,64.25
2023-02-05T07:45:25.634Z,64.36
2023-02-05T07:47:58.089Z,64.17
2023-02-05T07:50:30.614Z,64.71
2023-02-05T07:53:02.874Z,64.73
2023-02-05T07:55:37.798Z,64.53
2023-02-05T07:58:09.998Z,64.59
2023-02-05T08:00:42.345Z,64.83
2023-02-05T08:03:15.143Z,65.18
2023-02-05T08:05:47.313Z,64.65
2023-02-05T08:08:19.581Z,65.19
2023-02-05T08:11:00.897Z,65.10
2023-02-05T08:13:34.119Z,64.94
2023-02-05T08:16:09.747Z,64.02
2023-02-05T08:18:42.236Z,64.15
2023-02-05T08:21:14.551Z,64.30
2023-02-05T08:23:46.813Z,64.19
2023-02-05T08:26:19.814Z,64.89
2023-02-05T08:28:54.697Z,65.24
2023-02-05T08:31:27.837Z,64.84
2023-02-05T08:34:00.519Z,64.62
2023-02-05T08:36:33.295Z,64.11
2023-02-05T08:39:06.654Z,64.11
2023-02-05T08:41:39.465Z,64.47
2023-02-05T08:44:11.882Z,64.28
2023-02-05T08:46:50.207Z,63.91
2023-02-05T08:49:19.137Z,63.37
2023-02-05T08:51:52.175Z,63.47
2023-02-05T08:54:24.519Z,63.89
2023-02-05T08:56:56.916Z,63.47
2023-02-05T08:59:29.026Z,63.92
2023-02-05T09:02:01.548Z,63.62
2023-02-05T09:04:33.995Z,64.23
2023-02-05T09:07:06.525Z,63.96
2023-02-05T09:09:38.890Z,64.30
2023-02-05T09:12:14.056Z,64.48
2023-02-05T09:14:47.348Z,64.41
2023-02-05T09:17:19.772Z,64.13
2023-02-05T09:19:52.144Z,63.76
2023-02-05T09:22:24.408Z,63.34
2023-02-05T09:24:56.500Z,63.12
2023-02-05T09:27:28.897Z,61.86
2023-02-05T09:30:00.970Z,60.61
2023-02-05T09:32:34.669Z,60.06
2023-02-05T09:35:08.500Z,60.26
2023-02-05T09:37:40.737Z,59.43
2023-02-05T09:40:21.159Z,59.17
2023-02-05T09:43:11.494Z,59.06
2023-02-05T09:46:15.554Z,59.26
2023-02-05T09:48:57.178Z,58.88
2023-02-05T09:51:38.692Z,58.97
2023-02-05T09:54:26.597Z,59.13
2023-02-05T09:57:01.941Z,58.89
2023-02-05T09:59:35.524Z,59.19
2023-02-05T10:02:28.446Z,59.18
2023-02-05T10:05:01.304Z,59.73
2023-02-05T10:07:48.934Z,60.05
2023-02-05T10:10:36.501Z,60.06
2023-02-05T10:13:32.674Z,59.84
2023-02-05T10:16:28.640Z,59.99
2023-02-05T10:19:05.232Z,59.65
2023-02-05T10:21:52.533Z,59.19
2023-02-05T10:24:39.524Z,60.32
2023-02-05T10:27:17.512Z,60.31
2023-02-05T10:30:09.281Z,60.25
2023-02-05T10:32:45.002Z,60.36
2023-02-05T10:42:57.559Z,60.86
2023-02-05T10:45:31.572Z,60.56
2023-02-05T10:48:21.779Z,60.35
2023-02-05T10:51:00.048Z,60.35
2023-02-05T10:53:33.799Z,60.19
2023-02-05T10:56:07.353Z,59.86
2023-02-05T10:58:48.112Z,60.29
2023-02-05T11:01:22.884Z,60.46
2023-02-05T11:04:00.947Z,60.50
2023-02-05T11:06:36.260Z,59.85
2023-02-05T11:09:26.852Z,60.12
2023-02-05T11:12:05.433Z,59.96
2023-02-05T11:14:44.302Z,60.17
2023-02-05T11:17:20.359Z,59.34
2023-02-05T11:19:59.284Z,59.18
2023-02-05T11:22:36.376Z,59.73
2023-02-05T11:25:21.370Z,58.58
2023-02-05T11:28:05.852Z,59.05
2023-02-05T11:30:50.721Z,58.69
2023-02-05T11:33:24.855Z,58.75
2023-02-05T11:36:03.264Z,58.71
2023-02-05T11:38:46.786Z,58.98
2023-02-05T11:41:36.016Z,58.36
2023-02-05T11:44:08.437Z,58.48
2023-02-05T11:46:44.605Z,58.33
2023-02-05T11:49:23.645Z,58.23
2023-02-05T11:51:58.728Z,58.60
2023-02-05T11:54:36.891Z,59.29
2023-02-05T11:57:21.032Z,58.83
2023-02-05T12:00:16.115Z,59.03
2023-02-05T12:02:49.230Z,59.73
2023-02-05T12:05:24.205Z,59.75
2023-02-05T12:08:14.809Z,59.44
2023-02-05T12:10:50.545Z,59.29
2023-02-05T12:13:37.611Z,59.55
2023-02-05T12:16:40.255Z,60.88
2023-02-05T12:19:21.599Z,61.14
2023-02-05T12:22:00.846Z,61.11
2023-02-05T12:24:59.713Z,60.73
2023-02-05T12:27:55.038Z,60.56
2023-02-05T12:31:00.249Z,60.87
2023-02-05T12:33:41.707Z,61.19
2023-02-05T12:36:40.626Z,61.66
2023-02-05T12:39:27.979Z,61.74
2023-02-05T12:42:09.748Z,62.82
2023-02-05T12:44:57.390Z,62.61
2023-02-05T12:47:53.132Z,61.79
2023-02-05T12:50:53.767Z,61.76
2023-02-05T12:53:45.177Z,61.51
2023-02-05T12:56:28.649Z,61.57
2023-02-05T12:59:13.888Z,61.34
2023-02-05T13:01:49.577Z,61.30
2023-02-05T13:04:24.970Z,61.56
2023-02-05T13:07:00.307Z,61.57
2023-02-05T13:09:37.375Z,61.88
2023-02-05T13:12:12.523Z,61.85
2023-02-05T13:14:56.902Z,61.76
2023-02-05T13:17:32.720Z,61.79
2023-02-05T13:20:08.162Z,61.88
2023-02-05T13:23:06.419Z,62.31
2023-02-05T13:25:59.155Z,62.76
2023-02-05T13:28:53.316Z,63.34
2023-02-05T13:31:31.416Z,62.39
2023-02-05T13:34:06.524Z,62.74
2023-02-05T13:36:56.573Z,63.02
2023-02-05T13:39:34.810Z,63.44
2023-02-05T13:42:24.696Z,64.17
2023-02-05T13:45:11.900Z,63.19
2023-02-05T13:47:52.915Z,63.63
2023-02-05T13:50:49.351Z,63.62
2023-02-05T13:53:34.006Z,63.98
2023-02-05T13:56:31.568Z,63.84
2023-02-05T13:59:24.426Z,63.96
2023-02-05T14:02:00.711Z,64.80
2023-02-05T14:04:45.668Z,65.57
2023-02-05T14:07:23.541Z,65.03
2023-02-05T14:10:00.583Z,64.66
2023-02-05T14:12:37.500Z,65.84
2023-02-05T14:15:19.851Z,65.33
2023-02-05T14:17:55.166Z,65.60
2023-02-05T14:20:37.032Z,66.03
2023-02-05T14:23:20.926Z,66.33
2023-02-05T14:26:09.931Z,66.35
2023-02-05T14:28:47.385Z,65.99
2023-02-05T14:31:49.006Z,66.41
2023-02-05T14:34:36.727Z,66.57
2023-02-05T14:37:13.750Z,66.99
2023-02-05T14:39:46.084Z,67.05
2023-02-05T14:42:21.473Z,67.40
2023-02-05T14:44:57.656Z,67.46
2023-02-05T14:47:33.340Z,66.96
2023-02-05T14:50:11.279Z,67.20
2023-02-05T14:52:49.291Z,67.50
2023-02-05T14:55:24.171Z,67.75
2023-02-05T14:57:59.317Z,67.61
2023-02-05T15:00:42.860Z,67.22
2023-02-05T15:03:21.973Z,67.11
2023-02-05T15:05:56.959Z,67.39
2023-02-05T15:08:38.020Z,67.69
2023-02-05T15:11:25.428Z,67.54
2023-02-05T15:14:09.248Z,67.93
2023-02-05T15:16:41.361Z,67.75
2023-02-05T15:19:16.834Z,67.07
2023-02-05T15:21:51.948Z,67.25
2023-02-05T15:24:27.023Z,67.17
2023-02-05T15:27:02.269Z,67.20
2023-02-05T15:29:43.875Z,67.34
2023-02-05T15:32:22.044Z,68.01
2023-02-05T15:35:05.621Z,67.52
2023-02-05T15:37:40.771Z,67.45
2023-02-05T15:40:15.874Z,67.59
2023-02-05T15:42:51.103Z,67.67
2023-02-05T15:45:34.236Z,67.55
2023-02-05T15:48:16.447Z,67.43
2023-02-05T15:50:58.679Z,67.52
2023-02-05T15:53:36.479Z,67.56
2023-02-05T15:56:11.607Z,67.49
2023-02-05T15:58:52.575Z,68.08
2023-02-05T16:01:27.902Z,68.30
2023-02-05T16:04:00.615Z,68.20
2023-02-05T16:06:32.728Z,68.16
2023-02-05T16:09:06.384Z,68.52
2023-02-05T16:11:40.498Z,68.77
2023-02-05T16:14:16.443Z,68.86
2023-02-05T16:17:06.077Z,68.49
2023-02-05T16:19:47.219Z,68.52
2023-02-05T16:22:25.080Z,68.46
2023-02-05T16:25:01.557Z,68.75
2023-02-05T16:27:48.283Z,68.97
2023-02-05T16:30:23.156Z,68.72
2023-02-05T16:32:57.577Z,68.62
2023-02-05T16:35:32.580Z,68.53
2023-02-05T16:38:06.913Z,68.72
2023-02-05T16:40:43.173Z,68.69
2023-02-05T16:43:33.088Z,68.44
2023-02-05T16:46:08.232Z,68.74
2023-02-05T16:48:49.051Z,68.57
2023-02-05T16:51:37.162Z,69.04
2023-02-05T16:54:14.932Z,68.56
2023-02-05T16:56:55.703Z,68.39
2023-02-05T16:59:33.825Z,68.67
2023-02-05T17:02:06.287Z,68.68
2023-02-05T17:04:40.168Z,68.80
2023-02-05T17:07:21.558Z,69.18
2023-02-05T17:09:53.773Z,69.37
2023-02-05T17:12:40.985Z,69.39
2023-02-05T17:15:19.302Z,69.04
2023-02-05T17:17:56.068Z,69.16
2023-02-05T17:20:29.466Z,69.34
2023-02-05T17:23:09.575Z,69.56
2023-02-05T17:25:55.063Z,69.43
2023-02-05T17:28:29.942Z,69.53
2023-02-05T17:31:02.672Z,69.26
2023-02-05T17:33:35.013Z,69.15
2023-02-05T17:36:09.011Z,69.20
2023-02-05T17:38:40.351Z,69.27
2023-02-05T17:41:49.244Z,68.63
2023-02-05T17:44:24.221Z,68.26
2023-02-05T17:46:58.641Z,68.15
2023-02-05T17:49:31.288Z,68.27
2023-02-05T17:52:03.400Z,68.52
2023-02-05T17:54:36.725Z,69.01
2023-02-05T17:57:17.275Z,68.95
2023-02-05T17:59:49.619Z,69.23
2023-02-05T18:02:21.818Z,69.06
2023-02-05T18:04:54.319Z,68.81
2023-02-05T18:07:38.168Z,69.12
2023-02-05T18:10:13.224Z,69.25
2023-02-05T18:12:45.496Z,69.08
2023-02-05T18:15:18.546Z,68.95
2023-02-05T18:17:50.999Z,69.43
2023-02-05T18:20:23.613Z,69.56
2023-02-05T18:22:56.123Z,69.86
2023-02-05T18:25:28.533Z,69.85
2023-02-05T18:28:00.963Z,69.92
2023-02-05T18:30:33.330Z,69.66
2023-02-05T18:33:07.363Z,69.88
2023-02-05T18:35:39.842Z,70.19
2023-02-05T18:38:11.886Z,69.88
2023-02-05T18:40:43.917Z,70.00
2023-02-05T18:43:15.978Z,69.73
2023-02-05T18:45:48.112Z,69.82
2023-02-05T18:48:20.494Z,70.09
2023-02-05T18:50:52.720Z,70.07
2023-02-05T18:53:26.560Z,69.91
2023-02-05T18:56:03.942Z,69.56
2023-02-05T18:58:36.763Z,69.28
2023-02-05T19:01:16.873Z,69.02
2023-02-05T19:03:49.676Z,68.96
2023-02-05T19:06:23.824Z,69.08
2023-02-05T19:08:58.248Z,69.02
2023-02-05T19:11:31.393Z,68.81
2023-02-05T19:14:05.976Z,68.96
2023-02-05T19:16:39.639Z,68.75
2023-02-05T19:19:14.689Z,68.83
2023-02-05T19:21:48.568Z,68.48
2023-02-05T19:24:21.741Z,68.82
2023-02-05T19:26:57.964Z,68.49
2023-02-05T19:29:30.667Z,68.77
2023-02-05T19:32:04.400Z,68.97
2023-02-05T19:34:38.662Z,69.05
2023-02-05T19:37:12.345Z,69.38
2023-02-05T19:39:44.075Z,70.02
2023-02-05T19:42:16.218Z,69.43
2023-02-05T19:44:48.422Z,69.65
2023-02-05T19:47:21.850Z,69.46
2023-02-05T19:49:54.234Z,69.84
2023-02-05T19:52:26.505Z,69.32
2023-02-05T19:54:58.769Z,69.55
2023-02-05T19:57:32.347Z,69.65
2023-02-05T20:00:04.667Z,69.59
2023-02-05T20:02:39.080Z,69.27
2023-02-05T20:05:11.183Z,69.39
2023-02-05T20:07:43.405Z,68.70
2023-02-05T20:10:16.085Z,68.68
2023-02-05T20:12:49.976Z,68.28
2023-02-05T20:15:22.405Z,68.15
2023-02-05T20:17:56.569Z,67.95
2023-02-05T20:20:44.767Z,67.96
2023-02-05T20:23:02.689Z,67.95
2023-02-05T20:25:34.857Z,67.93
2023-02-05T20:28:07.160Z,67.89
2023-02-05T20:31:00.384Z,67.19
2023-02-05T20:33:32.626Z,66.90
2023-02-05T20:36:10.202Z,66.39
2023-02-05T20:38:42.793Z,66.27
2023-02-05T20:41:17.242Z,65.96
2023-02-05T20:43:49.586Z,65.27
2023-02-05T20:46:22.850Z,65.49
2023-02-05T20:48:55.015Z,65.31
2023-02-05T20:51:27.211Z,64.95
2023-02-05T20:54:00.390Z,64.99
2023-02-05T20:56:33.133Z,64.58
2023-02-05T20:59:07.162Z,64.74
2023-02-05T21:01:41.180Z,64.84
2023-02-05T21:04:13.554Z,64.83
2023-02-05T21:06:45.778Z,64.87
2023-02-05T21:09:18.153Z,64.59
2023-02-05T21:11:51.139Z,64.27
2023-02-05T21:14:23.407Z,63.99
2023-02-05T21:16:55.475Z,64.14
2023-02-05T21:19:27.391Z,63.78
2023-02-05T21:21:59.543Z,63.67
2023-02-05T21:24:31.770Z,63.52
2023-02-05T21:27:03.847Z,63.40
2023-02-05T21:29:35.956Z,63.30
2023-02-05T21:32:08.335Z,63.63
2023-02-05T21:34:40.372Z,63.81
2023-02-05T21:37:15.171Z,63.80
2023-02-05T21:39:48.069Z,63.82
2023-02-05T21:42:20.562Z,63.56
2023-02-05T21:44:54.233Z,63.89
2023-02-05T21:47:26.386Z,63.86
2023-02-05T21:49:58.347Z,63.48
2023-02-05T21:52:30.361Z,63.58
2023-02-05T21:55:02.812Z,63.45
2023-02-05T21:57:34.902Z,63.67
2023-02-05T22:00:07.155Z,63.84
2023-02-05T22:02:41.131Z,64.02
2023-02-05T22:05:13.142Z,63.87
2023-02-05T22:07:45.337Z,63.88
2023-02-05T22:10:17.699Z,63.78
2023-02-05T22:12:49.656Z,63.86
2023-02-05T22:15:21.714Z,63.91
2023-02-05T22:17:53.594Z,63.95
2023-02-05T22:20:25.734Z,64.05
2023-02-05T22:22:59.647Z,64.47
2023-02-05T22:25:32.396Z,64.66
2023-02-05T22:28:04.702Z,64.83
2023-02-05T22:30:36.932Z,64.90
2023-02-05T22:33:09.010Z,65.02
2023-02-05T22:35:41.406Z,64.84
2023-02-05T22:38:14.087Z,64.55
2023-02-05T22:40:46.273Z,64.47
2023-02-05T22:43:18.300Z,64.20
2023-02-05T22:45:50.422Z,64.50
2023-02-05T22:48:22.895Z,64.26
2023-02-05T22:50:55.087Z,64.67
2023-02-05T22:53:27.251Z,64.31
2023-02-05T22:56:05.149Z,64.59
2023-02-05T22:58:43.034Z,64.60
2023-02-05T23:01:21.176Z,64.77
2023-02-05T23:03:53.946Z,65.07
2023-02-05T23:06:29.115Z,65.24
2023-02-05T23:09:03.917Z,64.99
2023-02-05T23:11:36.532Z,64.71
2023-02-05T23:14:08.992Z,64.67
2023-02-05T23:16:44.076Z,64.52
2023-02-05T23:19:19.173Z,64.39
2023-02-05T23:21:51.924Z,64.74
2023-02-05T23:24:23.953Z,64.34
2023-02-05T23:26:56.008Z,64.45
2023-02-05T23:29:28.494Z,64.48
2023-02-05T23:32:00.748Z,64.20
2023-02-05T23:34:32.689Z,64.40
2023-02-05T23:37:04.775Z,64.34
2023-02-05T23:39:36.743Z,64.42
2023-02-05T23:42:10.526Z,64.47
2023-02-05T23:44:42.050Z,64.69
2023-02-05T23:47:13.950Z,64.87
2023-02-05T23:49:45.956Z,64.03
2023-02-05T23:52:17.968Z,63.88
2023-02-05T23:54:49.968Z,63.96
2023-02-05T23:57:22.024Z,63.99
2023-02-05T23:59:54.054Z,64.14
